sensor_id;sensor_type;location;lat;lon;timestamp;pressure;altitude;pressure_sealevel;temperature;humidity
62111;BME280;48102;47.526;19.072;2024-01-30T04:40:06;102826.84;;;-3.74;100.00
62111;BME280;48102;47.526;19.072;2024-01-30T04:43:12;102826.84;;;-3.74;100.00
62111;BME280;48102;47.526;19.072;2024-01-30T04:46:17;102830.34;;;-4.24;100.00
62111;BME280;48102;47.526;19.072;2024-01-30T04:49:20;102822.97;;;-4.18;100.00
62111;BME280;48102;47.526;19.072;2024-01-30T04:52:23;102824.94;;;-4.13;100.00
62111;BME280;48102;47.526;19.072;2024-01-30T04:55:26;102822.00;;;-4.03;100.00
62111;BME280;48102;47.526;19.072;2024-01-30T04:58:31;102830.63;;;-4.02;100.00
62111;BME280;48102;47.526;19.072;2024-01-30T05:01:34;102833.06;;;-4.05;100.00
62111;BME280;48102;47.526;19.072;2024-01-30T05:04:37;102836.37;;;-3.90;100.00
62111;BME280;48102;47.526;19.072;2024-01-30T05:07:42;102836.37;;;-3.90;100.00
62111;BME280;48102;47.526;19.072;2024-01-30T05:10:45;102839.34;;;-3.82;100.00
62111;BME280;48102;47.526;19.072;2024-01-30T05:13:49;102841.91;;;-3.82;100.00
62111;BME280;48102;47.526;19.072;2024-01-30T05:16:51;102848.09;;;-3.79;100.00
62111;BME280;48102;47.526;19.072;2024-01-30T05:19:54;102849.63;;;-3.82;100.00
62111;BME280;48102;47.526;19.072;2024-01-30T05:22:57;102853.31;;;-3.77;100.00
62111;BME280;48102;47.526;19.072;2024-01-30T05:26:00;102855.84;;;-3.79;100.00
62111;BME280;48102;47.526;19.072;2024-01-30T05:29:04;102859.44;;;-3.75;100.00
62111;BME280;48102;47.526;19.072;2024-01-30T05:32:09;102864.72;;;-3.72;100.00
62111;BME280;48102;47.526;19.072;2024-01-30T05:35:13;102862.16;;;-3.72;100.00
62111;BME280;48102;47.526;19.072;2024-01-30T05:38:16;102865.69;;;-3.70;100.00
62111;BME280;48102;47.526;19.072;2024-01-30T05:41:19;102871.69;;;-3.71;100.00
62111;BME280;48102;47.526;19.072;2024-01-30T05:44:23;102868.88;;;-3.75;100.00
62111;BME280;48102;47.526;19.072;2024-01-30T05:47:26;102871.28;;;-3.79;100.00
62111;BME280;48102;47.526;19.072;2024-01-30T05:50:29;102864.66;;;-3.73;100.00
62111;BME280;48102;47.526;19.072;2024-01-30T05:53:32;102868.94;;;-3.74;100.00
62111;BME280;48102;47.526;19.072;2024-01-30T05:56:36;102872.22;;;-3.76;100.00
62111;BME280;48102;47.526;19.072;2024-01-30T05:59:38;102870.91;;;-3.86;100.00
62111;BME280;48102;47.526;19.072;2024-01-30T06:02:44;102863.34;;;-3.83;100.00
62111;BME280;48102;47.526;19.072;2024-01-30T06:05:47;102874.16;;;-3.72;100.00
62111;BME280;48102;47.526;19.072;2024-01-30T06:08:50;102871.69;;;-3.71;100.00
62111;BME280;48102;47.526;19.072;2024-01-30T06:11:52;102872.34;;;-3.75;100.00
62111;BME280;48102;47.526;19.072;2024-01-30T06:14:55;102880.78;;;-3.78;100.00
62111;BME280;48102;47.526;19.072;2024-01-30T06:18:00;102870.47;;;-3.78;100.00
62111;BME280;48102;47.526;19.072;2024-01-30T06:21:04;102875.56;;;-3.79;100.00
62111;BME280;48102;47.526;19.072;2024-01-30T06:24:07;102883.41;;;-3.76;100.00
62111;BME280;48102;47.526;19.072;2024-01-30T06:27:10;102873.59;;;-3.67;100.00
62111;BME280;48102;47.526;19.072;2024-01-30T06:30:15;102874.75;;;-3.60;100.00
62111;BME280;48102;47.526;19.072;2024-01-30T06:33:18;102871.59;;;-3.55;100.00
62111;BME280;48102;47.526;19.072;2024-01-30T06:36:21;102878.88;;;-3.46;100.00
62111;BME280;48102;47.526;19.072;2024-01-30T06:39:24;102870.63;;;-3.39;100.00
62111;BME280;48102;47.526;19.072;2024-01-30T06:42:27;102882.16;;;-3.32;100.00
62111;BME280;48102;47.526;19.072;2024-01-30T06:45:30;102887.72;;;-3.23;100.00
62111;BME280;48102;47.526;19.072;2024-01-30T06:48:33;102879.09;;;-3.06;100.00
62111;BME280;48102;47.526;19.072;2024-01-30T06:51:36;102877.09;;;-2.93;100.00
62111;BME280;48102;47.526;19.072;2024-01-30T06:54:39;102882.00;;;-2.80;100.00
62111;BME280;48102;47.526;19.072;2024-01-30T06:57:42;102877.97;;;-2.73;100.00
62111;BME280;48102;47.526;19.072;2024-01-30T07:00:45;102889.22;;;-2.54;100.00
62111;BME280;48102;47.526;19.072;2024-01-30T07:03:48;102885.28;;;-2.45;100.00
62111;BME280;48102;47.526;19.072;2024-01-30T07:06:51;102879.84;;;-2.32;100.00
62111;BME280;48102;47.526;19.072;2024-01-30T07:09:55;102883.87;;;-2.18;100.00
62111;BME280;48102;47.526;19.072;2024-01-30T07:13:00;102890.31;;;-2.08;100.00
62111;BME280;48102;47.526;19.072;2024-01-30T07:16:04;102887.41;;;-1.96;100.00
62111;BME280;48102;47.526;19.072;2024-01-30T07:19:07;102896.31;;;-1.90;100.00
62111;BME280;48102;47.526;19.072;2024-01-30T07:22:12;102896.19;;;-1.72;100.00
62111;BME280;48102;47.526;19.072;2024-01-30T07:25:15;102891.72;;;-1.55;100.00
62111;BME280;48102;47.526;19.072;2024-01-30T07:28:19;102886.41;;;-1.37;100.00
62111;BME280;48102;47.526;19.072;2024-01-30T07:31:22;102889.25;;;-1.30;100.00
62111;BME280;48102;47.526;19.072;2024-01-30T07:34:26;102894.84;;;-1.20;100.00
62111;BME280;48102;47.526;19.072;2024-01-30T07:37:30;102889.34;;;-1.06;100.00
62111;BME280;48102;47.526;19.072;2024-01-30T07:40:33;102887.53;;;-0.86;100.00
62111;BME280;48102;47.526;19.072;2024-01-30T07:43:38;102884.16;;;-0.83;100.00
62111;BME280;48102;47.526;19.072;2024-01-30T07:46:41;102882.00;;;-0.72;100.00
62111;BME280;48102;47.526;19.072;2024-01-30T07:49:44;102883.50;;;-0.55;100.00
62111;BME280;48102;47.526;19.072;2024-01-30T07:52:47;102879.66;;;-0.42;100.00
62111;BME280;48102;47.526;19.072;2024-01-30T07:55:54;102876.69;;;-0.29;100.00
62111;BME280;48102;47.526;19.072;2024-01-30T07:58:56;102864.25;;;-0.14;100.00
62111;BME280;48102;47.526;19.072;2024-01-30T08:01:59;102870.13;;;0.06;100.00
62111;BME280;48102;47.526;19.072;2024-01-30T08:05:03;102874.47;;;0.33;100.00
62111;BME280;48102;47.526;19.072;2024-01-30T08:08:06;102885.25;;;0.45;100.00
62111;BME280;48102;47.526;19.072;2024-01-30T08:11:09;102881.22;;;0.55;100.00
62111;BME280;48102;47.526;19.072;2024-01-30T08:14:12;102877.06;;;0.60;100.00
62111;BME280;48102;47.526;19.072;2024-01-30T08:17:16;102883.38;;;0.68;100.00
62111;BME280;48102;47.526;19.072;2024-01-30T08:20:19;102877.81;;;0.83;100.00
62111;BME280;48102;47.526;19.072;2024-01-30T08:23:22;102880.53;;;0.87;100.00
62111;BME280;48102;47.526;19.072;2024-01-30T08:26:25;102884.31;;;0.98;100.00
62111;BME280;48102;47.526;19.072;2024-01-30T08:29:28;102886.41;;;1.10;100.00
62111;BME280;48102;47.526;19.072;2024-01-30T08:32:31;102888.81;;;1.33;100.00
62111;BME280;48102;47.526;19.072;2024-01-30T08:35:35;102886.78;;;1.53;100.00
62111;BME280;48102;47.526;19.072;2024-01-30T08:38:38;102888.81;;;1.63;100.00
62111;BME280;48102;47.526;19.072;2024-01-30T08:41:41;102894.44;;;1.78;100.00
62111;BME280;48102;47.526;19.072;2024-01-30T08:44:43;102896.53;;;1.91;100.00
62111;BME280;48102;47.526;19.072;2024-01-30T08:47:46;102897.53;;;1.96;100.00
62111;BME280;48102;47.526;19.072;2024-01-30T08:50:49;102896.63;;;1.94;100.00
62111;BME280;48102;47.526;19.072;2024-01-30T08:53:52;102894.41;;;2.10;100.00
62111;BME280;48102;47.526;19.072;2024-01-30T08:56:56;102900.16;;;2.31;100.00
62111;BME280;48102;47.526;19.072;2024-01-30T09:00:01;102894.34;;;2.41;100.00
62111;BME280;48102;47.526;19.072;2024-01-30T09:03:07;102889.72;;;2.64;100.00
62111;BME280;48102;47.526;19.072;2024-01-30T09:06:10;102887.66;;;2.89;100.00
62111;BME280;48102;47.526;19.072;2024-01-30T09:09:14;102886.41;;;3.11;100.00
62111;BME280;48102;47.526;19.072;2024-01-30T09:12:17;102879.97;;;3.33;100.00
62111;BME280;48102;47.526;19.072;2024-01-30T09:15:20;102883.25;;;3.24;100.00
62111;BME280;48102;47.526;19.072;2024-01-30T09:18:26;102887.59;;;3.25;100.00
62111;BME280;48102;47.526;19.072;2024-01-30T09:21:29;102886.00;;;3.32;100.00
62111;BME280;48102;47.526;19.072;2024-01-30T09:24:32;102890.22;;;3.25;100.00
62111;BME280;48102;47.526;19.072;2024-01-30T09:27:35;102880.50;;;3.18;100.00
62111;BME280;48102;47.526;19.072;2024-01-30T09:30:38;102884.16;;;3.27;100.00
62111;BME280;48102;47.526;19.072;2024-01-30T09:33:41;102875.91;;;3.48;100.00
62111;BME280;48102;47.526;19.072;2024-01-30T09:36:44;102878.63;;;3.53;100.00
62111;BME280;48102;47.526;19.072;2024-01-30T09:39:47;102879.09;;;3.76;100.00
62111;BME280;48102;47.526;19.072;2024-01-30T09:42:51;102877.78;;;3.99;100.00
62111;BME280;48102;47.526;19.072;2024-01-30T09:45:57;102880.47;;;4.04;100.00
62111;BME280;48102;47.526;19.072;2024-01-30T09:49:02;102881.34;;;4.05;100.00
62111;BME280;48102;47.526;19.072;2024-01-30T09:52:05;102874.97;;;3.89;100.00
62111;BME280;48102;47.526;19.072;2024-01-30T09:55:10;102870.19;;;3.66;100.00
62111;BME280;48102;47.526;19.072;2024-01-30T09:58:13;102877.91;;;3.60;100.00
62111;BME280;48102;47.526;19.072;2024-01-30T10:01:17;102880.69;;;3.71;100.00
62111;BME280;48102;47.526;19.072;2024-01-30T10:04:22;102876.06;;;4.01;100.00
62111;BME280;48102;47.526;19.072;2024-01-30T10:07:25;102874.84;;;4.31;100.00
62111;BME280;48102;47.526;19.072;2024-01-30T10:10:28;102878.44;;;4.39;100.00
62111;BME280;48102;47.526;19.072;2024-01-30T10:13:31;102879.09;;;4.24;100.00
62111;BME280;48102;47.526;19.072;2024-01-30T10:16:34;102882.34;;;4.13;100.00
62111;BME280;48102;47.526;19.072;2024-01-30T10:19:39;102881.97;;;3.93;100.00
62111;BME280;48102;47.526;19.072;2024-01-30T10:22:42;102877.47;;;3.83;100.00
62111;BME280;48102;47.526;19.072;2024-01-30T10:25:46;102861.69;;;4.23;100.00
62111;BME280;48102;47.526;19.072;2024-01-30T10:28:49;102858.44;;;4.38;100.00
62111;BME280;48102;47.526;19.072;2024-01-30T10:32:03;102864.06;;;4.64;100.00
62111;BME280;48102;47.526;19.072;2024-01-30T10:35:06;102854.97;;;5.00;100.00
62111;BME280;48102;47.526;19.072;2024-01-30T10:38:10;102858.34;;;5.61;100.00
62111;BME280;48102;47.526;19.072;2024-01-30T10:41:15;102845.09;;;6.26;100.00
62111;BME280;48102;47.526;19.072;2024-01-30T10:44:22;102839.06;;;6.41;99.99
62111;BME280;48102;47.526;19.072;2024-01-30T10:47:29;102840.09;;;6.65;97.65
62111;BME280;48102;47.526;19.072;2024-01-30T10:50:32;102831.47;;;6.81;96.26
62111;BME280;48102;47.526;19.072;2024-01-30T10:53:43;102827.97;;;6.76;96.11
62111;BME280;48102;47.526;19.072;2024-01-30T10:56:49;102824.56;;;6.94;92.79
62111;BME280;48102;47.526;19.072;2024-01-30T11:00:04;102813.13;;;6.81;93.65
62111;BME280;48102;47.526;19.072;2024-01-30T11:03:13;102820.94;;;6.73;93.37
62111;BME280;48102;47.526;19.072;2024-01-30T11:06:17;102803.44;;;6.62;92.46
62111;BME280;48102;47.526;19.072;2024-01-30T11:09:22;102805.19;;;6.63;92.48
62111;BME280;48102;47.526;19.072;2024-01-30T11:12:28;102804.31;;;6.61;91.80
62111;BME280;48102;47.526;19.072;2024-01-30T11:15:31;102810.91;;;6.13;94.36
62111;BME280;48102;47.526;19.072;2024-01-30T11:18:35;102795.75;;;5.76;97.90
62111;BME280;48102;47.526;19.072;2024-01-30T11:21:43;102795.75;;;5.78;99.05
62111;BME280;48102;47.526;19.072;2024-01-30T11:24:47;102786.34;;;5.92;99.38
62111;BME280;48102;47.526;19.072;2024-01-30T11:27:51;102787.22;;;5.94;98.99
62111;BME280;48102;47.526;19.072;2024-01-30T11:31:03;102778.38;;;5.85;99.98
62111;BME280;48102;47.526;19.072;2024-01-30T11:34:06;102778.56;;;6.01;98.92
62111;BME280;48102;47.526;19.072;2024-01-30T11:37:11;102782.78;;;5.89;95.44
62111;BME280;48102;47.526;19.072;2024-01-30T11:40:16;102778.50;;;5.95;95.20
62111;BME280;48102;47.526;19.072;2024-01-30T11:43:19;102780.13;;;5.84;96.40
62111;BME280;48102;47.526;19.072;2024-01-30T11:46:24;102780.84;;;5.69;97.02
62111;BME280;48102;47.526;19.072;2024-01-30T11:49:28;102778.13;;;5.57;99.57
62111;BME280;48102;47.526;19.072;2024-01-30T11:52:33;102771.25;;;5.68;96.56
62111;BME280;48102;47.526;19.072;2024-01-30T11:55:36;102769.69;;;5.87;96.94
62111;BME280;48102;47.526;19.072;2024-01-30T11:58:42;102755.69;;;5.84;96.09
62111;BME280;48102;47.526;19.072;2024-01-30T12:01:51;102762.56;;;5.74;95.62
62111;BME280;48102;47.526;19.072;2024-01-30T12:04:55;102750.31;;;5.67;96.61
62111;BME280;48102;47.526;19.072;2024-01-30T12:07:58;102753.81;;;5.66;99.47
62111;BME280;48102;47.526;19.072;2024-01-30T12:11:06;102741.56;;;5.62;98.27
62111;BME280;48102;47.526;19.072;2024-01-30T12:14:10;102735.59;;;5.79;98.33
62111;BME280;48102;47.526;19.072;2024-01-30T12:17:29;102733.06;;;5.87;92.96
62111;BME280;48102;47.526;19.072;2024-01-30T12:20:32;102737.41;;;5.88;94.31
62111;BME280;48102;47.526;19.072;2024-01-30T12:23:35;102726.78;;;5.68;94.58
62111;BME280;48102;47.526;19.072;2024-01-30T12:26:38;102719.88;;;5.75;93.41
62111;BME280;48102;47.526;19.072;2024-01-30T12:29:42;102724.31;;;5.84;94.88
62111;BME280;48102;47.526;19.072;2024-01-30T12:32:47;102722.66;;;5.92;93.74
62111;BME280;48102;47.526;19.072;2024-01-30T12:35:50;102717.53;;;6.06;94.35
62111;BME280;48102;47.526;19.072;2024-01-30T12:39:04;102722.78;;;6.12;93.68
62111;BME280;48102;47.526;19.072;2024-01-30T12:42:08;102719.34;;;6.19;88.04
62111;BME280;48102;47.526;19.072;2024-01-30T12:45:11;102719.28;;;6.13;90.94
62111;BME280;48102;47.526;19.072;2024-01-30T12:48:14;102713.09;;;6.00;92.39
62111;BME280;48102;47.526;19.072;2024-01-30T12:51:16;102711.41;;;6.07;91.93
62111;BME280;48102;47.526;19.072;2024-01-30T12:54:20;102713.16;;;6.08;89.67
62111;BME280;48102;47.526;19.072;2024-01-30T12:57:23;102700.78;;;5.88;88.89
62111;BME280;48102;47.526;19.072;2024-01-30T13:00:26;102705.22;;;5.92;89.60
62111;BME280;48102;47.526;19.072;2024-01-30T13:03:28;102702.62;;;5.98;87.26
62111;BME280;48102;47.526;19.072;2024-01-30T13:06:32;102693.06;;;6.00;87.72
62111;BME280;48102;47.526;19.072;2024-01-30T13:09:34;102689.59;;;6.06;85.25
62111;BME280;48102;47.526;19.072;2024-01-30T13:12:38;102686.97;;;6.08;85.99
62111;BME280;48102;47.526;19.072;2024-01-30T13:15:41;102686.97;;;6.08;86.73
62111;BME280;48102;47.526;19.072;2024-01-30T13:18:44;102688.72;;;6.09;86.15
62111;BME280;48102;47.526;19.072;2024-01-30T13:21:47;102680.87;;;6.06;85.31
62111;BME280;48102;47.526;19.072;2024-01-30T13:24:50;102677.44;;;6.16;85.72
62111;BME280;48102;47.526;19.072;2024-01-30T13:27:53;102680.94;;;6.13;82.96
62111;BME280;48102;47.526;19.072;2024-01-30T13:30:56;102676.44;;;5.95;81.96
62111;BME280;48102;47.526;19.072;2024-01-30T13:33:58;102678.06;;;5.86;81.22
62111;BME280;48102;47.526;19.072;2024-01-30T13:37:02;102680.78;;;5.93;77.96
62111;BME280;48102;47.526;19.072;2024-01-30T13:40:05;102680.69;;;5.86;75.78
62111;BME280;48102;47.526;19.072;2024-01-30T13:43:13;102680.78;;;5.95;73.24
62111;BME280;48102;47.526;19.072;2024-01-30T13:46:17;102672.16;;;6.07;72.14
62111;BME280;48102;47.526;19.072;2024-01-30T13:49:20;102675.72;;;6.19;68.05
62111;BME280;48102;47.526;19.072;2024-01-30T13:52:24;102681.88;;;6.29;63.87
62111;BME280;48102;47.526;19.072;2024-01-30T13:55:34;102675.00;;;6.56;61.60
62111;BME280;48102;47.526;19.072;2024-01-30T13:58:37;102676.88;;;6.90;61.04
62111;BME280;48102;47.526;19.072;2024-01-30T14:01:40;102666.47;;;7.33;58.59
62111;BME280;48102;47.526;19.072;2024-01-30T14:05:03;102665.59;;;7.85;56.61
62111;BME280;48102;47.526;19.072;2024-01-30T14:08:07;102672.25;;;8.96;53.15
62111;BME280;48102;47.526;19.072;2024-01-30T14:11:11;102670.81;;;9.73;51.34
62111;BME280;48102;47.526;19.072;2024-01-30T14:14:14;102666.00;;;10.17;48.93
62111;BME280;48102;47.526;19.072;2024-01-30T14:17:18;102663.34;;;10.20;48.71
62111;BME280;48102;47.526;19.072;2024-01-30T14:20:21;102664.75;;;9.65;49.64
62111;BME280;48102;47.526;19.072;2024-01-30T14:23:24;102660.84;;;10.04;49.64
62111;BME280;48102;47.526;19.072;2024-01-30T14:26:27;102659.91;;;10.86;47.33
62111;BME280;48102;47.526;19.072;2024-01-30T14:29:30;102657.25;;;12.84;44.10
62111;BME280;48102;47.526;19.072;2024-01-30T14:32:33;102650.81;;;15.22;39.09
62111;BME280;48102;47.526;19.072;2024-01-30T14:35:38;102658.00;;;16.70;36.35
62111;BME280;48102;47.526;19.072;2024-01-30T14:38:40;102658.25;;;18.74;33.69
62111;BME280;48102;47.526;19.072;2024-01-30T14:41:45;102656.19;;;18.98;32.49
62111;BME280;48102;47.526;19.072;2024-01-30T14:44:48;102656.25;;;18.78;32.86
62111;BME280;48102;47.526;19.072;2024-01-30T14:47:51;102647.59;;;19.28;32.07
62111;BME280;48102;47.526;19.072;2024-01-30T14:50:55;102643.09;;;17.76;33.21
62111;BME280;48102;47.526;19.072;2024-01-30T14:53:58;102643.84;;;16.93;34.68
62111;BME280;48102;47.526;19.072;2024-01-30T14:57:01;102631.28;;;15.50;36.65
62111;BME280;48102;47.526;19.072;2024-01-30T15:00:05;102641.97;;;13.35;40.18
62111;BME280;48102;47.526;19.072;2024-01-30T15:03:08;102638.81;;;11.94;43.23
62111;BME280;48102;47.526;19.072;2024-01-30T15:06:14;102648.25;;;10.37;46.21
62111;BME280;48102;47.526;19.072;2024-01-30T15:09:17;102646.91;;;8.86;49.85
62111;BME280;48102;47.526;19.072;2024-01-30T15:12:20;102641.16;;;7.57;53.44
62111;BME280;48102;47.526;19.072;2024-01-30T15:15:23;102643.72;;;6.92;56.31
62111;BME280;48102;47.526;19.072;2024-01-30T15:18:32;102646.06;;;6.25;58.83
62111;BME280;48102;47.526;19.072;2024-01-30T15:21:35;102646.78;;;5.93;62.31
62111;BME280;48102;47.526;19.072;2024-01-30T15:24:39;102642.81;;;5.36;65.79
62111;BME280;48102;47.526;19.072;2024-01-30T15:27:42;102638.06;;;4.94;69.46
62111;BME280;48102;47.526;19.072;2024-01-30T15:30:45;102641.13;;;4.58;73.43
62111;BME280;48102;47.526;19.072;2024-01-30T15:33:49;102640.78;;;4.28;74.97
62111;BME280;48102;47.526;19.072;2024-01-30T15:36:52;102648.25;;;4.02;78.67
62111;BME280;48102;47.526;19.072;2024-01-30T15:39:55;102640.13;;;3.83;80.96
62111;BME280;48102;47.526;19.072;2024-01-30T15:42:58;102626.69;;;3.55;81.52
62111;BME280;48102;47.526;19.072;2024-01-30T15:46:02;102640.37;;;3.43;84.81
62111;BME280;48102;47.526;19.072;2024-01-30T15:49:05;102639.28;;;3.31;86.66
62111;BME280;48102;47.526;19.072;2024-01-30T15:52:09;102638.03;;;3.07;90.13
62111;BME280;48102;47.526;19.072;2024-01-30T15:55:17;102642.94;;;2.90;91.36
62111;BME280;48102;47.526;19.072;2024-01-30T15:58:20;102649.47;;;2.70;92.83
62111;BME280;48102;47.526;19.072;2024-01-30T16:01:23;102646.78;;;2.67;98.57
62111;BME280;48102;47.526;19.072;2024-01-30T16:04:27;102644.97;;;2.63;97.71
62111;BME280;48102;47.526;19.072;2024-01-30T16:07:30;102651.75;;;2.55;100.00
62111;BME280;48102;47.526;19.072;2024-01-30T16:10:35;102655.94;;;2.46;100.00
62111;BME280;48102;47.526;19.072;2024-01-30T16:13:40;102660.09;;;2.38;100.00
62111;BME280;48102;47.526;19.072;2024-01-30T16:16:44;102653.81;;;2.29;100.00
62111;BME280;48102;47.526;19.072;2024-01-30T16:19:47;102658.78;;;2.16;100.00
62111;BME280;48102;47.526;19.072;2024-01-30T16:22:52;102656.84;;;2.08;100.00
62111;BME280;48102;47.526;19.072;2024-01-30T16:25:57;102653.13;;;1.98;100.00
62111;BME280;48102;47.526;19.072;2024-01-30T16:29:00;102653.84;;;1.91;100.00
62111;BME280;48102;47.526;19.072;2024-01-30T16:32:03;102653.75;;;1.86;100.00
62111;BME280;48102;47.526;19.072;2024-01-30T16:35:07;102652.63;;;1.76;100.00
62111;BME280;48102;47.526;19.072;2024-01-30T16:38:10;102652.41;;;1.67;100.00
62111;BME280;48102;47.526;19.072;2024-01-30T16:41:16;102648.81;;;1.61;100.00
62111;BME280;48102;47.526;19.072;2024-01-30T16:44:18;102653.84;;;1.55;100.00
62111;BME280;48102;47.526;19.072;2024-01-30T16:47:22;102648.59;;;1.52;100.00
62111;BME280;48102;47.526;19.072;2024-01-30T16:50:28;102649.25;;;1.43;100.00
62111;BME280;48102;47.526;19.072;2024-01-30T16:53:31;102651.66;;;1.35;100.00
62111;BME280;48102;47.526;19.072;2024-01-30T16:56:34;102654.00;;;1.26;100.00
62111;BME280;48102;47.526;19.072;2024-01-30T16:59:36;102652.09;;;1.19;100.00
62111;BME280;48102;47.526;19.072;2024-01-30T17:02:39;102657.06;;;1.11;100.00
62111;BME280;48102;47.526;19.072;2024-01-30T17:05:42;102657.13;;;1.13;100.00
62111;BME280;48102;47.526;19.072;2024-01-30T17:08:45;102655.28;;;1.09;100.00
62111;BME280;48102;47.526;19.072;2024-01-30T17:11:48;102657.91;;;1.09;100.00
62111;BME280;48102;47.526;19.072;2024-01-30T17:14:51;102655.44;;;1.15;100.00
62111;BME280;48102;47.526;19.072;2024-01-30T17:17:54;102653.94;;;1.23;100.00
62111;BME280;48102;47.526;19.072;2024-01-30T17:20:57;102653.72;;;1.15;100.00
62111;BME280;48102;47.526;19.072;2024-01-30T17:24:03;102654.47;;;1.11;100.00
62111;BME280;48102;47.526;19.072;2024-01-30T17:27:05;102657.91;;;1.09;100.00
62111;BME280;48102;47.526;19.072;2024-01-30T17:30:11;102651.81;;;1.08;100.00
62111;BME280;48102;47.526;19.072;2024-01-30T17:33:14;102651.44;;;0.94;100.00
